sensor_id;sensor_type;location;lat;lon;timestamp;pressure;altitude;pressure_sealevel;temperature;humidity
51849;BME280;38952;51.090;-1.832;2023-12-07T00:00:42;100007.91;;;5.54;100.00
51849;BME280;38952;51.090;-1.832;2023-12-07T00:03:09;100032.16;;;5.72;100.00
51849;BME280;38952;51.090;-1.832;2023-12-07T00:05:48;100032.16;;;5.72;100.00
51849;BME280;38952;51.090;-1.832;2023-12-07T00:08:20;99998.63;;;5.50;100.00
51849;BME280;38952;51.090;-1.832;2023-12-07T00:10:48;100027.28;;;5.74;100.00
51849;BME280;38952;51.090;-1.832;2023-12-07T00:13:18;100001.53;;;5.60;100.00
51849;BME280;38952;51.090;-1.832;2023-12-07T00:15:49;100035.84;;;5.83;100.00
51849;BME280;38952;51.090;-1.832;2023-12-07T00:18:15;100017.50;;;5.73;100.00
51849;BME280;38952;51.090;-1.832;2023-12-07T00:20:43;99994.44;;;5.59;100.00
51849;BME280;38952;51.090;-1.832;2023-12-07T00:23:08;100033.47;;;5.87;100.00
51849;BME280;38952;51.090;-1.832;2023-12-07T00:25:36;100027.16;;;5.81;100.00
51849;BME280;38952;51.090;-1.832;2023-12-07T00:28:02;100011.25;;;5.73;100.00
51849;BME280;38952;51.090;-1.832;2023-12-07T00:30:30;100023.59;;;5.81;100.00
51849;BME280;38952;51.090;-1.832;2023-12-07T00:32:56;99995.13;;;5.66;100.00
51849;BME280;38952;51.090;-1.832;2023-12-07T00:35:23;99975.63;;;5.69;100.00
51849;BME280;38952;51.090;-1.832;2023-12-07T00:37:49;99971.38;;;5.73;100.00
51849;BME280;38952;51.090;-1.832;2023-12-07T00:40:16;99962.06;;;5.69;100.00
51849;BME280;38952;51.090;-1.832;2023-12-07T00:42:44;99975.25;;;5.77;100.00
51849;BME280;38952;51.090;-1.832;2023-12-07T00:45:11;99995.81;;;5.90;100.00
51849;BME280;38952;51.090;-1.832;2023-12-07T00:47:40;99981.22;;;5.80;100.00
51849;BME280;38952;51.090;-1.832;2023-12-07T00:50:11;99958.13;;;5.60;100.00
51849;BME280;38952;51.090;-1.832;2023-12-07T00:52:44;99977.06;;;5.89;100.00
51849;BME280;38952;51.090;-1.832;2023-12-07T00:55:10;99959.53;;;5.80;100.00
51849;BME280;38952;51.090;-1.832;2023-12-07T00:57:38;99973.97;;;5.97;100.00
51849;BME280;38952;51.090;-1.832;2023-12-07T01:00:13;99941.69;;;5.84;100.00
51849;BME280;38952;51.090;-1.832;2023-12-07T01:02:38;99951.59;;;5.90;100.00
51849;BME280;38952;51.090;-1.832;2023-12-07T01:05:12;99929.69;;;5.80;100.00
51849;BME280;38952;51.090;-1.832;2023-12-07T01:07:45;99969.69;;;6.01;100.00
51849;BME280;38952;51.090;-1.832;2023-12-07T01:10:18;99914.56;;;5.67;100.00
51849;BME280;38952;51.090;-1.832;2023-12-07T01:12:47;99937.81;;;5.80;100.00
51849;BME280;38952;51.090;-1.832;2023-12-07T01:15:15;99946.88;;;5.85;100.00
51849;BME280;38952;51.090;-1.832;2023-12-07T01:17:42;99944.50;;;5.89;100.00
51849;BME280;38952;51.090;-1.832;2023-12-07T01:20:08;99959.47;;;5.91;100.00
51849;BME280;38952;51.090;-1.832;2023-12-07T01:22:39;99931.31;;;5.81;100.00
51849;BME280;38952;51.090;-1.832;2023-12-07T01:25:11;99934.63;;;5.83;100.00
51849;BME280;38952;51.090;-1.832;2023-12-07T01:27:49;99932.16;;;5.81;100.00
51849;BME280;38952;51.090;-1.832;2023-12-07T01:30:25;99892.44;;;5.58;100.00
51849;BME280;38952;51.090;-1.832;2023-12-07T01:32:50;99917.69;;;5.75;100.00
51849;BME280;38952;51.090;-1.832;2023-12-07T01:35:20;99914.97;;;5.75;100.00
51849;BME280;38952;51.090;-1.832;2023-12-07T01:37:48;99921.63;;;5.85;100.00
51849;BME280;38952;51.090;-1.832;2023-12-07T01:40:14;99925.16;;;5.85;100.00
51849;BME280;38952;51.090;-1.832;2023-12-07T01:42:42;99932.09;;;5.93;100.00
51849;BME280;38952;51.090;-1.832;2023-12-07T01:45:19;99923.94;;;5.93;100.00
51849;BME280;38952;51.090;-1.832;2023-12-07T01:47:46;99920.88;;;5.89;100.00
51849;BME280;38952;51.090;-1.832;2023-12-07T01:50:12;99910.88;;;5.90;100.00
51849;BME280;38952;51.090;-1.832;2023-12-07T01:52:45;99931.03;;;6.11;100.00
51849;BME280;38952;51.090;-1.832;2023-12-07T01:55:23;99914.09;;;6.04;100.00
51849;BME280;38952;51.090;-1.832;2023-12-07T01:57:49;99916.81;;;6.04;100.00
51849;BME280;38952;51.090;-1.832;2023-12-07T02:00:17;99899.84;;;5.97;100.00
51849;BME280;38952;51.090;-1.832;2023-12-07T02:02:44;99895.84;;;5.99;100.00
51849;BME280;38952;51.090;-1.832;2023-12-07T02:05:12;99899.94;;;6.02;100.00
51849;BME280;38952;51.090;-1.832;2023-12-07T02:07:41;99860.72;;;5.75;100.00
51849;BME280;38952;51.090;-1.832;2023-12-07T02:10:12;99882.09;;;5.89;100.00
51849;BME280;38952;51.090;-1.832;2023-12-07T02:12:40;99893.13;;;5.99;100.00
51849;BME280;38952;51.090;-1.832;2023-12-07T02:15:06;99873.59;;;5.85;100.00
51849;BME280;38952;51.090;-1.832;2023-12-07T02:20:25;99909.16;;;6.01;100.00
51849;BME280;38952;51.090;-1.832;2023-12-07T02:23:01;99886.19;;;5.91;100.00
51849;BME280;38952;51.090;-1.832;2023-12-07T02:25:41;99877.91;;;5.81;100.00
51849;BME280;38952;51.090;-1.832;2023-12-07T02:28:12;99893.00;;;5.94;100.00
51849;BME280;38952;51.090;-1.832;2023-12-07T02:30:38;99869.50;;;5.83;100.00
51849;BME280;38952;51.090;-1.832;2023-12-07T02:33:05;99875.50;;;5.85;100.00
51849;BME280;38952;51.090;-1.832;2023-12-07T02:35:31;99890.28;;;5.94;100.00
51849;BME280;38952;51.090;-1.832;2023-12-07T02:37:57;99875.50;;;5.85;100.00
51849;BME280;38952;51.090;-1.832;2023-12-07T02:40:27;99855.84;;;5.77;100.00
51849;BME280;38952;51.090;-1.832;2023-12-07T02:42:59;99883.78;;;5.95;100.00
51849;BME280;38952;51.090;-1.832;2023-12-07T02:45:25;99874.59;;;5.96;100.00
51849;BME280;38952;51.090;-1.832;2023-12-07T02:47:53;99870.81;;;5.97;100.00
51849;BME280;38952;51.090;-1.832;2023-12-07T02:50:26;99870.34;;;6.00;100.00
51849;BME280;38952;51.090;-1.832;2023-12-07T02:52:52;99856.53;;;6.02;100.00
51849;BME280;38952;51.090;-1.832;2023-12-07T02:55:18;99844.75;;;5.96;100.00
51849;BME280;38952;51.090;-1.832;2023-12-07T02:57:43;99862.09;;;6.12;100.00
51849;BME280;38952;51.090;-1.832;2023-12-07T03:00:09;99840.28;;;6.07;100.00
51849;BME280;38952;51.090;-1.832;2023-12-07T03:02:41;99841.69;;;6.09;100.00
51849;BME280;38952;51.090;-1.832;2023-12-07T03:05:19;99837.41;;;6.14;100.00
51849;BME280;38952;51.090;-1.832;2023-12-07T03:07:48;99831.97;;;6.14;100.00
51849;BME280;38952;51.090;-1.832;2023-12-07T03:10:16;99827.34;;;6.14;100.00
51849;BME280;38952;51.090;-1.832;2023-12-07T03:12:41;99815.19;;;6.17;100.00
51849;BME280;38952;51.090;-1.832;2023-12-07T03:15:09;99804.56;;;6.15;100.00
51849;BME280;38952;51.090;-1.832;2023-12-07T03:17:35;99800.22;;;6.14;100.00
51849;BME280;38952;51.090;-1.832;2023-12-07T03:20:01;99807.09;;;6.22;100.00
51849;BME280;38952;51.090;-1.832;2023-12-07T03:22:26;99814.72;;;6.25;100.00
51849;BME280;38952;51.090;-1.832;2023-12-07T03:24:52;99821.31;;;6.29;100.00
51849;BME280;38952;51.090;-1.832;2023-12-07T03:27:18;99813.16;;;6.29;100.00
51849;BME280;38952;51.090;-1.832;2023-12-07T03:29:44;99820.38;;;6.40;100.00
51849;BME280;38952;51.090;-1.832;2023-12-07T03:32:11;99779.44;;;6.25;100.00
51849;BME280;38952;51.090;-1.832;2023-12-07T03:34:46;99812.72;;;6.37;100.00
51849;BME280;38952;51.090;-1.832;2023-12-07T03:37:12;99792.53;;;6.28;100.00
51849;BME280;38952;51.090;-1.832;2023-12-07T03:39:37;99803.38;;;6.28;100.00
51849;BME280;38952;51.090;-1.832;2023-12-07T03:42:06;99778.44;;;6.31;100.00
51849;BME280;38952;51.090;-1.832;2023-12-07T03:44:35;99789.84;;;6.33;100.00
51849;BME280;38952;51.090;-1.832;2023-12-07T03:47:04;99757.22;;;6.28;100.00
51849;BME280;38952;51.090;-1.832;2023-12-07T03:49:30;99729.88;;;6.13;100.00
51849;BME280;38952;51.090;-1.832;2023-12-07T03:51:59;99775.00;;;6.41;100.00
51849;BME280;38952;51.090;-1.832;2023-12-07T03:54:24;99754.00;;;6.31;100.00
51849;BME280;38952;51.090;-1.832;2023-12-07T03:56:57;99735.81;;;6.32;100.00
51849;BME280;38952;51.090;-1.832;2023-12-07T03:59:22;99759.03;;;6.44;100.00
51849;BME280;38952;51.090;-1.832;2023-12-07T04:01:53;99756.31;;;6.44;100.00
51849;BME280;38952;51.090;-1.832;2023-12-07T04:04:24;99738.88;;;6.40;100.00
51849;BME280;38952;51.090;-1.832;2023-12-07T04:06:52;99736.69;;;6.37;100.00
51849;BME280;38952;51.090;-1.832;2023-12-07T04:09:18;99730.13;;;6.33;100.00
51849;BME280;38952;51.090;-1.832;2023-12-07T04:15:10;99720.84;;;6.29;100.00
51849;BME280;38952;51.090;-1.832;2023-12-07T04:17:44;99749.44;;;6.37;100.00
51849;BME280;38952;51.090;-1.832;2023-12-07T04:20:09;99725.72;;;6.27;100.00
51849;BME280;38952;51.090;-1.832;2023-12-07T04:22:37;99750.88;;;6.44;100.00
51849;BME280;38952;51.090;-1.832;2023-12-07T04:25:08;99725.63;;;6.22;100.00
51849;BME280;38952;51.090;-1.832;2023-12-07T04:27:36;99754.66;;;6.43;100.00
51849;BME280;38952;51.090;-1.832;2023-12-07T04:30:11;99713.97;;;6.21;100.00
51849;BME280;38952;51.090;-1.832;2023-12-07T04:32:45;99720.28;;;6.27;100.00
51849;BME280;38952;51.090;-1.832;2023-12-07T04:35:17;99740.78;;;6.40;100.00
51849;BME280;38952;51.090;-1.832;2023-12-07T04:37:52;99675.53;;;6.07;100.00
51849;BME280;38952;51.090;-1.832;2023-12-07T04:40:28;99684.88;;;6.17;100.00
51849;BME280;38952;51.090;-1.832;2023-12-07T04:46:30;99710.06;;;6.39;100.00
51849;BME280;38952;51.090;-1.832;2023-12-07T04:49:03;99675.16;;;6.21;100.00
51849;BME280;38952;51.090;-1.832;2023-12-07T04:51:34;99641.09;;;6.13;100.00
51849;BME280;38952;51.090;-1.832;2023-12-07T04:54:07;99679.03;;;6.30;100.00
51849;BME280;38952;51.090;-1.832;2023-12-07T04:56:36;99712.78;;;6.39;100.00
51849;BME280;38952;51.090;-1.832;2023-12-07T04:59:36;99706.00;;;6.37;100.00
51849;BME280;38952;51.090;-1.832;2023-12-07T05:02:15;99641.50;;;6.00;100.00
51849;BME280;38952;51.090;-1.832;2023-12-07T05:04:42;99692.53;;;6.25;100.00
51849;BME280;38952;51.090;-1.832;2023-12-07T05:07:13;99699.44;;;6.33;100.00
51849;BME280;38952;51.090;-1.832;2023-12-07T05:09:44;99672.69;;;6.19;100.00
51849;BME280;38952;51.090;-1.832;2023-12-07T05:12:11;99662.31;;;6.16;100.00
51849;BME280;38952;51.090;-1.832;2023-12-07T05:14:36;99672.47;;;6.26;100.00
51849;BME280;38952;51.090;-1.832;2023-12-07T05:17:05;99680.06;;;6.24;100.00
51849;BME280;38952;51.090;-1.832;2023-12-07T05:19:30;99663.78;;;6.24;100.00
51849;BME280;38952;51.090;-1.832;2023-12-07T05:21:58;99656.34;;;6.14;100.00
51849;BME280;38952;51.090;-1.832;2023-12-07T05:24:29;99652.91;;;6.24;100.00
51849;BME280;38952;51.090;-1.832;2023-12-07T05:26:57;99674.78;;;6.12;100.00
51849;BME280;38952;51.090;-1.832;2023-12-07T05:32:40;99650.88;;;6.09;100.00
51849;BME280;38952;51.090;-1.832;2023-12-07T05:35:13;99664.81;;;6.18;100.00
51849;BME280;38952;51.090;-1.832;2023-12-07T05:37:41;99657.13;;;6.15;100.00
51849;BME280;38952;51.090;-1.832;2023-12-07T05:40:19;99671.84;;;6.19;100.00
51849;BME280;38952;51.090;-1.832;2023-12-07T05:43:10;99679.03;;;6.30;100.00
51849;BME280;38952;51.090;-1.832;2023-12-07T05:46:15;99680.16;;;6.34;100.00
51849;BME280;38952;51.090;-1.832;2023-12-07T05:52:12;99671.19;;;6.34;100.00
51849;BME280;38952;51.090;-1.832;2023-12-07T05:54:41;99637.66;;;6.18;100.00
51849;BME280;38952;51.090;-1.832;2023-12-07T05:57:08;99629.50;;;6.18;100.00
51849;BME280;38952;51.090;-1.832;2023-12-07T05:59:37;99645.03;;;6.22;100.00
51849;BME280;38952;51.090;-1.832;2023-12-07T06:02:05;99629.97;;;6.09;100.00
51849;BME280;38952;51.090;-1.832;2023-12-07T06:04:31;99644.19;;;6.22;100.00
51849;BME280;38952;51.090;-1.832;2023-12-07T06:06:58;99620.69;;;6.05;100.00
51849;BME280;38952;51.090;-1.832;2023-12-07T06:09:24;99623.41;;;6.05;100.00
51849;BME280;38952;51.090;-1.832;2023-12-07T06:11:49;99643.66;;;6.25;100.00
51849;BME280;38952;51.090;-1.832;2023-12-07T06:14:15;99616.94;;;6.11;100.00
51849;BME280;38952;51.090;-1.832;2023-12-07T06:16:41;99635.50;;;6.20;100.00
51849;BME280;38952;51.090;-1.832;2023-12-07T06:19:09;99597.91;;;6.06;100.00
51849;BME280;38952;51.090;-1.832;2023-12-07T06:21:37;99581.56;;;6.01;100.00
51849;BME280;38952;51.090;-1.832;2023-12-07T06:24:02;99594.59;;;6.04;100.00
51849;BME280;38952;51.090;-1.832;2023-12-07T06:26:28;99613.09;;;6.07;100.00
51849;BME280;38952;51.090;-1.832;2023-12-07T06:28:53;99587.56;;;6.03;100.00
51849;BME280;38952;51.090;-1.832;2023-12-07T06:31:19;99610.38;;;6.07;100.00
51849;BME280;38952;51.090;-1.832;2023-12-07T06:33:47;99607.31;;;6.26;100.00
51849;BME280;38952;51.090;-1.832;2023-12-07T06:36:21;99573.22;;;6.08;100.00
51849;BME280;38952;51.090;-1.832;2023-12-07T06:38:47;99579.94;;;6.00;100.00
51849;BME280;38952;51.090;-1.832;2023-12-07T06:41:14;99588.22;;;6.16;100.00
51849;BME280;38952;51.090;-1.832;2023-12-07T06:43:39;99575.16;;;6.13;100.00
51849;BME280;38952;51.090;-1.832;2023-12-07T06:46:12;99607.81;;;6.23;100.00
51849;BME280;38952;51.090;-1.832;2023-12-07T06:48:41;99598.00;;;6.17;100.00
51849;BME280;38952;51.090;-1.832;2023-12-07T06:51:09;99599.13;;;6.21;100.00
51849;BME280;38952;51.090;-1.832;2023-12-07T06:53:35;99613.31;;;6.28;100.00
51849;BME280;38952;51.090;-1.832;2023-12-07T06:56:03;99572.97;;;6.15;100.00
51849;BME280;38952;51.090;-1.832;2023-12-07T06:58:30;99567.81;;;6.13;100.00
51849;BME280;38952;51.090;-1.832;2023-12-07T07:00:57;99594.84;;;6.30;100.00
51849;BME280;38952;51.090;-1.832;2023-12-07T07:03:53;99534.91;;;6.04;100.00
51849;BME280;38952;51.090;-1.832;2023-12-07T07:06:32;99559.75;;;6.23;100.00
51849;BME280;38952;51.090;-1.832;2023-12-07T07:09:22;99533.03;;;6.10;100.00
51849;BME280;38952;51.090;-1.832;2023-12-07T07:11:48;99589.97;;;6.32;100.00
51849;BME280;38952;51.090;-1.832;2023-12-07T07:14:18;99565.50;;;6.27;100.00
51849;BME280;38952;51.090;-1.832;2023-12-07T07:16:54;99548.00;;;6.13;100.00
51849;BME280;38952;51.090;-1.832;2023-12-07T07:19:32;99539.22;;;6.00;100.00
51849;BME280;38952;51.090;-1.832;2023-12-07T07:22:13;99530.50;;;5.98;100.00
51849;BME280;38952;51.090;-1.832;2023-12-07T07:24:57;99629.38;;;6.35;100.00
51849;BME280;38952;51.090;-1.832;2023-12-07T07:30:58;99545.22;;;6.07;100.00
51849;BME280;38952;51.090;-1.832;2023-12-07T07:33:33;99550.25;;;6.21;100.00
51849;BME280;38952;51.090;-1.832;2023-12-07T07:36:55;99524.88;;;6.05;100.00
51849;BME280;38952;51.090;-1.832;2023-12-07T07:39:41;99526.84;;;6.15;100.00
51849;BME280;38952;51.090;-1.832;2023-12-07T07:42:09;99533.88;;;6.10;100.00
51849;BME280;38952;51.090;-1.832;2023-12-07T07:44:45;99548.53;;;6.09;100.00
51849;BME280;38952;51.090;-1.832;2023-12-07T07:47:10;99558.59;;;6.14;100.00
51849;BME280;38952;51.090;-1.832;2023-12-07T07:49:39;99551.88;;;6.22;100.00
51849;BME280;38952;51.090;-1.832;2023-12-07T07:52:05;99554.13;;;6.30;100.00
51849;BME280;38952;51.090;-1.832;2023-12-07T07:54:30;99533.97;;;6.21;100.00
51849;BME280;38952;51.090;-1.832;2023-12-07T07:56:56;99541.00;;;6.22;100.00
51849;BME280;38952;51.090;-1.832;2023-12-07T07:59:29;99556.59;;;6.32;100.00
51849;BME280;38952;51.090;-1.832;2023-12-07T08:01:59;99527.44;;;6.22;100.00
51849;BME280;38952;51.090;-1.832;2023-12-07T08:04:24;99532.25;;;6.15;100.00
51849;BME280;38952;51.090;-1.832;2023-12-07T08:06:52;99552.97;;;6.21;100.00
51849;BME280;38952;51.090;-1.832;2023-12-07T08:09:23;99528.03;;;6.24;100.00
51849;BME280;38952;51.090;-1.832;2023-12-07T08:11:56;99531.00;;;6.22;100.00
51849;BME280;38952;51.090;-1.832;2023-12-07T08:14:23;99511.41;;;6.20;100.00
51849;BME280;38952;51.090;-1.832;2023-12-07T08:17:19;99540.59;;;6.35;100.00
51849;BME280;38952;51.090;-1.832;2023-12-07T08:20:10;99495.63;;;6.12;100.00
51849;BME280;38952;51.090;-1.832;2023-12-07T08:22:43;99541.94;;;6.33;100.00
51849;BME280;38952;51.090;-1.832;2023-12-07T08:25:12;99505.28;;;6.03;100.00
51849;BME280;38952;51.090;-1.832;2023-12-07T08:27:50;99524.19;;;6.20;100.00
51849;BME280;38952;51.090;-1.832;2023-12-07T08:30:16;99495.34;;;6.14;100.00
51849;BME280;38952;51.090;-1.832;2023-12-07T08:32:42;99519.28;;;6.17;100.00
51849;BME280;38952;51.090;-1.832;2023-12-07T08:35:15;99475.44;;;6.03;100.00
51849;BME280;38952;51.090;-1.832;2023-12-07T08:37:44;99485.50;;;6.02;100.00
51849;BME280;38952;51.090;-1.832;2023-12-07T08:40:12;99483.28;;;5.99;100.00
51849;BME280;38952;51.090;-1.832;2023-12-07T08:42:49;99485.78;;;6.06;100.00
51849;BME280;38952;51.090;-1.832;2023-12-07T08:45:14;99471.41;;;6.05;100.00
51849;BME280;38952;51.090;-1.832;2023-12-07T08:48:03;99481.53;;;6.15;100.00
51849;BME280;38952;51.090;-1.832;2023-12-07T08:50:34;99425.53;;;5.76;100.00
51849;BME280;38952;51.090;-1.832;2023-12-07T08:53:08;99445.22;;;5.94;100.00
51849;BME280;38952;51.090;-1.832;2023-12-07T08:55:34;99473.66;;;6.14;100.00
51849;BME280;38952;51.090;-1.832;2023-12-07T08:57:59;99468.22;;;6.14;100.00
51849;BME280;38952;51.090;-1.832;2023-12-07T09:00:31;99445.78;;;5.96;100.00
51849;BME280;38952;51.090;-1.832;2023-12-07T09:02:56;99466.50;;;6.02;100.00
51849;BME280;38952;51.090;-1.832;2023-12-07T09:05:26;99421.28;;;5.86;100.00
51849;BME280;38952;51.090;-1.832;2023-12-07T09:07:57;99463.16;;;5.95;100.00
51849;BME280;38952;51.090;-1.832;2023-12-07T09:10:24;99413.94;;;5.81;100.00
51849;BME280;38952;51.090;-1.832;2023-12-07T09:12:50;99439.06;;;5.99;100.00
51849;BME280;38952;51.090;-1.832;2023-12-07T09:15:16;99416.38;;;5.83;100.00
51849;BME280;38952;51.090;-1.832;2023-12-07T09:17:44;99389.06;;;5.62;100.00
51849;BME280;38952;51.090;-1.832;2023-12-07T09:20:10;99444.28;;;5.78;100.00
51849;BME280;38952;51.090;-1.832;2023-12-07T09:22:46;99446.44;;;5.76;100.00
51849;BME280;38952;51.090;-1.832;2023-12-07T09:25:22;99451.88;;;5.76;100.00
51849;BME280;38952;51.090;-1.832;2023-12-07T09:27:48;99418.09;;;5.62;100.00
51849;BME280;38952;51.090;-1.832;2023-12-07T09:30:16;99442.41;;;5.79;100.00
51849;BME280;38952;51.090;-1.832;2023-12-07T09:32:42;99434.53;;;5.82;100.00
51849;BME280;38952;51.090;-1.832;2023-12-07T09:35:10;99423.88;;;5.70;100.00
51849;BME280;38952;51.090;-1.832;2023-12-07T09:37:45;99429.91;;;5.77;100.00
51849;BME280;38952;51.090;-1.832;2023-12-07T09:40:16;99416.00;;;5.69;100.00
51849;BME280;38952;51.090;-1.832;2023-12-07T09:42:49;99417.41;;;5.76;100.00
51849;BME280;38952;51.090;-1.832;2023-12-07T09:51:12;99376.63;;;5.66;100.00
51849;BME280;38952;51.090;-1.832;2023-12-07T09:53:48;99347.31;;;5.63;100.00
51849;BME280;38952;51.090;-1.832;2023-12-07T09:56:16;99350.63;;;5.70;100.00
51849;BME280;38952;51.090;-1.832;2023-12-07T09:58:42;99330.31;;;5.73;100.00
51849;BME280;38952;51.090;-1.832;2023-12-07T10:01:07;99344.22;;;5.87;100.00
51849;BME280;38952;51.090;-1.832;2023-12-07T10:03:43;99360.25;;;5.88;100.00
51849;BME280;38952;51.090;-1.832;2023-12-07T10:06:16;99367.56;;;5.83;100.00
51849;BME280;38952;51.090;-1.832;2023-12-07T10:08:42;99349.56;;;5.76;100.00
51849;BME280;38952;51.090;-1.832;2023-12-07T10:11:29;99367.03;;;5.91;100.00
51849;BME280;38952;51.090;-1.832;2023-12-07T10:13:58;99347.91;;;5.65;100.00
51849;BME280;38952;51.090;-1.832;2023-12-07T10:16:26;99377.75;;;5.70;100.00
51849;BME280;38952;51.090;-1.832;2023-12-07T10:18:52;99363.03;;;5.61;100.00
51849;BME280;38952;51.090;-1.832;2023-12-07T10:21:31;99394.94;;;5.81;100.00
51849;BME280;38952;51.090;-1.832;2023-12-07T10:24:02;99328.25;;;5.53;100.00
51849;BME280;38952;51.090;-1.832;2023-12-07T10:26:28;99358.56;;;5.82;100.00
51849;BME280;38952;51.090;-1.832;2023-12-07T10:29:09;99359.41;;;5.83;100.00
51849;BME280;38952;51.090;-1.832;2023-12-07T10:31:44;99347.19;;;5.85;100.00
51849;BME280;38952;51.090;-1.832;2023-12-07T10:34:09;99374.28;;;6.13;100.00
51849;BME280;38952;51.090;-1.832;2023-12-07T10:36:40;99335.00;;;5.88;100.00
51849;BME280;38952;51.090;-1.832;2023-12-07T10:39:08;99344.31;;;5.97;100.00
51849;BME280;38952;51.090;-1.832;2023-12-07T10:41:51;99326.25;;;5.75;100.00
51849;BME280;38952;51.090;-1.832;2023-12-07T10:44:27;99350.25;;;5.94;100.00
51849;BME280;38952;51.090;-1.832;2023-12-07T10:46:54;99351.38;;;5.98;100.00
51849;BME280;38952;51.090;-1.832;2023-12-07T10:49:25;99340.53;;;5.98;100.00
51849;BME280;38952;51.090;-1.832;2023-12-07T10:52:08;99319.16;;;5.69;100.00
51849;BME280;38952;51.090;-1.832;2023-12-07T10:54:50;99341.56;;;5.92;100.00
51849;BME280;38952;51.090;-1.832;2023-12-07T10:57:20;99308.88;;;5.71;100.00
51849;BME280;38952;51.090;-1.832;2023-12-07T10:59:53;99310.59;;;5.88;100.00
51849;BME280;38952;51.090;-1.832;2023-12-07T11:02:22;99325.38;;;6.02;100.00
51849;BME280;38952;51.090;-1.832;2023-12-07T11:04:51;99293.81;;;5.96;100.00
51849;BME280;38952;51.090;-1.832;2023-12-07T11:07:33;99300.41;;;6.05;100.00
51849;BME280;38952;51.090;-1.832;2023-12-07T11:10:10;99290.09;;;6.07;100.00
51849;BME280;38952;51.090;-1.832;2023-12-07T11:12:47;99297.47;;;6.12;100.00
51849;BME280;38952;51.090;-1.832;2023-12-07T11:15:17;99252.28;;;5.90;100.00
51849;BME280;38952;51.090;-1.832;2023-12-07T11:17:50;99291.72;;;6.03;100.00
51849;BME280;38952;51.090;-1.832;2023-12-07T11:20:41;99270.03;;;6.08;100.00
51849;BME280;38952;51.090;-1.832;2023-12-07T11:23:11;99231.94;;;5.93;100.00
51849;BME280;38952;51.090;-1.832;2023-12-07T11:25:47;99238.81;;;6.11;100.00
51849;BME280;38952;51.090;-1.832;2023-12-07T11:28:16;99242.91;;;6.19;100.00
51849;BME280;38952;51.090;-1.832;2023-12-07T11:30:50;99231.22;;;6.13;100.00
51849;BME280;38952;51.090;-1.832;2023-12-07T11:33:19;99220.41;;;6.18;100.00
51849;BME280;38952;51.090;-1.832;2023-12-07T11:38:28;99211.94;;;6.09;100.00
51849;BME280;38952;51.090;-1.832;2023-12-07T11:40:57;99207.09;;;6.17;100.00
51849;BME280;38952;51.090;-1.832;2023-12-07T11:45:58;99226.69;;;6.39;100.00
51849;BME280;38952;51.090;-1.832;2023-12-07T11:48:29;99226.44;;;6.46;100.00
51849;BME280;38952;51.090;-1.832;2023-12-07T11:51:25;99181.31;;;6.24;100.00
51849;BME280;38952;51.090;-1.832;2023-12-07T11:53:53;99182.41;;;6.28;100.00
51849;BME280;38952;51.090;-1.832;2023-12-07T11:56:20;99208.78;;;6.43;100.00
51849;BME280;38952;51.090;-1.832;2023-12-07T11:58:59;99134.63;;;6.12;100.00
51849;BME280;38952;51.090;-1.832;2023-12-07T12:01:25;99161.22;;;6.15;100.00
51849;BME280;38952;51.090;-1.832;2023-12-07T12:03:53;99166.38;;;6.22;100.00
51849;BME280;38952;51.090;-1.832;2023-12-07T12:06:19;99152.81;;;6.17;100.00
51849;BME280;38952;51.090;-1.832;2023-12-07T12:08:44;99193.03;;;6.35;100.00
51849;BME280;38952;51.090;-1.832;2023-12-07T12:11:10;99162.59;;;6.33;100.00
51849;BME280;38952;51.090;-1.832;2023-12-07T12:13:38;99162.91;;;6.37;100.00
51849;BME280;38952;51.090;-1.832;2023-12-07T12:16:05;99135.47;;;6.28;100.00
51849;BME280;38952;51.090;-1.832;2023-12-07T12:18:31;99134.09;;;6.36;100.00
51849;BME280;38952;51.090;-1.832;2023-12-07T12:21:09;99123.50;;;6.29;100.00
51849;BME280;38952;51.090;-1.832;2023-12-07T12:23:35;99090.91;;;6.19;100.00
51849;BME280;38952;51.090;-1.832;2023-12-07T12:26:09;99100.16;;;6.18;100.00
51849;BME280;38952;51.090;-1.832;2023-12-07T12:28:36;99097.44;;;6.23;100.00
51849;BME280;38952;51.090;-1.832;2023-12-07T12:31:08;99099.31;;;6.17;100.00
51849;BME280;38952;51.090;-1.832;2023-12-07T12:33:37;99075.97;;;6.16;100.00
51849;BME280;38952;51.090;-1.832;2023-12-07T12:36:04;99082.78;;;6.24;100.00
51849;BME280;38952;51.090;-1.832;2023-12-07T12:38:52;99101.22;;;6.42;100.00
51849;BME280;38952;51.090;-1.832;2023-12-07T12:41:21;99050.75;;;6.10;100.00
51849;BME280;38952;51.090;-1.832;2023-12-07T12:43:47;99087.66;;;6.37;100.00
51849;BME280;38952;51.090;-1.832;2023-12-07T12:46:16;99027.38;;;6.04;100.00
51849;BME280;38952;51.090;-1.832;2023-12-07T12:49:01;99093.09;;;6.37;100.00
51849;BME280;38952;51.090;-1.832;2023-12-07T12:51:42;99084.41;;;6.30;100.00
51849;BME280;38952;51.090;-1.832;2023-12-07T12:54:09;99069.75;;;6.21;100.00
51849;BME280;38952;51.090;-1.832;2023-12-07T12:56:34;99082.25;;;6.37;100.00
51849;BME280;38952;51.090;-1.832;2023-12-07T12:59:00;99038.25;;;6.20;100.00
51849;BME280;38952;51.090;-1.832;2023-12-07T13:01:26;99017.63;;;6.14;100.00
51849;BME280;38952;51.090;-1.832;2023-12-07T13:03:54;99034.47;;;6.21;100.00
51849;BME280;38952;51.090;-1.832;2023-12-07T13:06:21;99016.00;;;6.13;100.00
51849;BME280;38952;51.090;-1.832;2023-12-07T13:08:47;99022.50;;;6.17;100.00
51849;BME280;38952;51.090;-1.832;2023-12-07T13:11:24;99023.31;;;6.17;100.00
51849;BME280;38952;51.090;-1.832;2023-12-07T13:13:59;99034.47;;;6.21;100.00
51849;BME280;38952;51.090;-1.832;2023-12-07T13:16:34;99004.03;;;6.08;100.00
51849;BME280;38952;51.090;-1.832;2023-12-07T13:19:01;99018.69;;;6.23;100.00
51849;BME280;38952;51.090;-1.832;2023-12-07T13:21:27;98983.41;;;5.97;100.00
51849;BME280;38952;51.090;-1.832;2023-12-07T13:23:55;98988.84;;;6.07;100.00
51849;BME280;38952;51.090;-1.832;2023-12-07T13:26:28;98987.75;;;6.08;100.00
51849;BME280;38952;51.090;-1.832;2023-12-07T13:29:01;98995.34;;;6.27;100.00
51849;BME280;38952;51.090;-1.832;2023-12-07T13:31:37;99004.59;;;6.26;100.00
51849;BME280;38952;51.090;-1.832;2023-12-07T13:34:02;98982.31;;;6.08;100.00
51849;BME280;38952;51.090;-1.832;2023-12-07T13:36:28;98985.59;;;6.10;100.00
51849;BME280;38952;51.090;-1.832;2023-12-07T13:38:57;98999.69;;;6.23;100.00